Time;durP1;ratioP1;P1;durP2;ratioP2;P2;SDS_P1;SDS_P2;PMS_P1;PMS_P2;Temp;Humidity;BMP_temperature;BMP_pressure;BME280_temperature;BME280_humidity;BME280_pressure;Samples;Min_cycle;Max_cycle;Signal;HPM_P1;HPM_P2
2022/10/18 00:02:24;;;;;;;15.82;10.50;;;18.90;99.90;;;;;;5013746;28;20037;-70
2022/10/18 00:04:51;;;;;;;14.80;10.63;;;19.00;99.90;;;;;;5013263;28;20118;-70
2022/10/18 00:07:17;;;;;;;16.65;11.15;;;18.90;99.90;;;;;;5013556;28;20060;-70
2022/10/18 00:09:44;;;;;;;16.17;11.75;;;18.90;99.90;;;;;;5013756;28;20056;-71
2022/10/18 00:12:10;;;;;;;16.17;10.57;;;18.80;99.90;;;;;;5013519;28;20032;-71
2022/10/18 00:14:36;;;;;;;15.63;11.35;;;18.80;99.90;;;;;;5013192;28;20022;-71
2022/10/18 00:17:02;;;;;;;18.10;11.35;;;18.80;99.90;;;;;;5013152;28;20057;-69
2022/10/18 00:19:29;;;;;;;14.43;10.27;;;18.70;99.90;;;;;;5013658;28;20022;-71
2022/10/18 00:21:56;;;;;;;14.48;11.82;;;18.70;99.90;;;;;;4995837;28;20078;-71
2022/10/18 00:24:23;;;;;;;17.58;10.75;;;18.70;99.90;;;;;;5013499;28;20053;-71
2022/10/18 00:26:49;;;;;;;18.63;11.20;;;18.70;99.90;;;;;;4995610;28;20044;-71
2022/10/18 00:29:16;;;;;;;15.95;12.02;;;18.60;99.90;;;;;;4995647;28;20026;-71
2022/10/18 00:31:43;;;;;;;15.95;11.68;;;18.50;99.90;;;;;;4995902;28;20026;-71
2022/10/18 00:34:14;;;;;;;14.73;10.73;;;18.50;99.90;;;;;;5012920;28;20343;-71
2022/10/18 00:36:41;;;;;;;17.02;11.65;;;18.50;99.90;;;;;;5012783;28;20106;-70
2022/10/18 00:39:11;;;;;;;19.33;11.95;;;18.50;99.90;;;;;;5013314;28;20057;-71
2022/10/18 00:41:38;;;;;;;16.70;11.45;;;18.40;99.90;;;;;;5013145;28;20057;-71
2022/10/18 00:44:06;;;;;;;20.45;11.55;;;18.40;99.90;;;;;;5013511;28;20064;-71
2022/10/18 00:46:37;;;;;;;14.15;10.48;;;18.40;99.90;;;;;;5013120;28;20053;-70
2022/10/18 00:49:19;;;;;;;15.38;10.02;;;18.50;99.90;;;;;;4995453;28;20074;-66
2022/10/18 00:51:55;;;;;;;16.98;11.35;;;18.50;99.90;;;;;;5013244;28;20029;-70
2022/10/18 00:54:22;;;;;;;16.98;11.15;;;18.50;99.90;;;;;;5013294;28;20022;-71
2022/10/18 00:56:49;;;;;;;16.73;10.73;;;18.50;99.90;;;;;;5012861;28;20077;-71
2022/10/18 00:59:17;;;;;;;15.88;10.35;;;18.50;99.90;;;;;;5012799;28;20482;-71
2022/10/18 01:01:45;;;;;;;14.75;10.13;;;18.50;99.90;;;;;;5012839;28;20450;-70
2022/10/18 01:04:13;;;;;;;14.50;10.82;;;18.50;99.90;;;;;;5012920;28;20101;-71
2022/10/18 01:07:03;;;;;;;14.50;9.90;;;18.50;99.90;;;;;;5012460;28;20092;-72
2022/10/18 01:09:57;;;;;;;16.48;10.43;;;18.50;99.90;;;;;;5012943;28;20025;-72
2022/10/18 01:13:00;;;;;;;15.30;10.50;;;18.50;99.90;;;;;;5012560;28;20026;-70
2022/10/18 01:15:36;;;;;;;13.90;10.55;;;18.50;99.90;;;;;;5012752;28;20030;-72
2022/10/18 01:18:18;;;;;;;14.63;10.25;;;18.40;99.90;;;;;;5012820;28;20042;-71
2022/10/18 01:21:06;;;;;;;16.83;9.98;;;18.40;99.90;;;;;;5013024;28;20108;-71
2022/10/18 01:24:02;;;;;;;19.65;11.93;;;18.40;99.90;;;;;;5013158;28;20033;-71
2022/10/18 01:26:56;;;;;;;17.30;11.48;;;18.30;99.90;;;;;;5012648;28;20033;-72
2022/10/18 01:29:50;;;;;;;17.73;12.85;;;18.20;99.90;;;;;;5012671;28;20487;-70
2022/10/18 01:32:22;;;;;;;16.50;12.20;;;18.10;99.90;;;;;;5012747;28;20493;-72
2022/10/18 01:34:52;;;;;;;18.58;13.07;;;18.00;99.90;;;;;;4994684;28;20038;-72
2022/10/18 01:37:20;;;;;;;15.88;12.35;;;18.00;99.90;;;;;;4995059;28;20069;-72
2022/10/18 01:39:51;;;;;;;20.13;13.18;;;18.00;99.90;;;;;;4995024;28;20080;-72
2022/10/18 01:42:20;;;;;;;18.92;12.57;;;18.00;99.90;;;;;;5012652;28;20076;-72
2022/10/18 01:44:50;;;;;;;19.67;12.43;;;18.00;99.90;;;;;;4994385;28;20056;-71
2022/10/18 01:47:18;;;;;;;17.45;12.85;;;18.00;99.90;;;;;;5011681;28;20042;-72
2022/10/18 01:49:45;;;;;;;17.52;11.63;;;18.00;99.90;;;;;;5012087;28;20389;-71
2022/10/18 01:52:15;;;;;;;18.70;12.93;;;18.00;99.90;;;;;;5012106;28;20034;-72
2022/10/18 01:54:49;;;;;;;16.85;12.63;;;18.00;99.90;;;;;;5011858;28;20029;-71
2022/10/18 01:57:27;;;;;;;18.90;12.90;;;17.90;99.90;;;;;;5012243;28;20053;-72
2022/10/18 02:00:03;;;;;;;17.25;12.77;;;17.90;99.90;;;;;;5012222;28;20466;-70
2022/10/18 02:02:46;;;;;;;19.17;12.60;;;17.90;99.90;;;;;;5012215;28;20029;-72
2022/10/18 02:05:30;;;;;;;19.70;12.88;;;17.80;99.90;;;;;;5012042;28;20050;-72
2022/10/18 02:08:18;;;;;;;20.48;12.15;;;17.80;99.90;;;;;;5012098;28;20137;-72
2022/10/18 02:10:48;;;;;;;17.83;12.15;;;17.80;99.90;;;;;;5011963;28;20462;-72
2022/10/18 02:13:20;;;;;;;17.85;11.43;;;17.80;99.90;;;;;;5011967;28;20145;-71
2022/10/18 02:15:48;;;;;;;14.75;11.05;;;17.80;99.90;;;;;;4994206;28;20052;-72
2022/10/18 02:18:24;;;;;;;15.15;10.57;;;17.80;99.90;;;;;;5011958;28;20026;-71
2022/10/18 02:20:51;;;;;;;13.38;10.27;;;17.80;99.90;;;;;;5011627;28;20030;-72
2022/10/18 02:23:22;;;;;;;15.90;10.70;;;17.80;99.90;;;;;;5011456;28;20099;-71
2022/10/18 02:25:49;;;;;;;16.58;10.88;;;17.70;99.90;;;;;;5011678;28;20033;-72
2022/10/18 02:28:16;;;;;;;;;;;17.80;99.90;;;;;;5011329;28;20482;-72
2022/10/18 02:31:25;;;;;;;14.27;10.15;;;17.80;99.90;;;;;;5010886;28;19979;-71
2022/10/18 02:34:29;;;;;;;16.90;11.40;;;17.80;99.90;;;;;;5010581;28;20062;-70
2022/10/18 02:37:02;;;;;;;20.02;11.60;;;17.90;99.90;;;;;;5010919;28;20021;-71
2022/10/18 02:39:36;;;;;;;21.45;11.63;;;17.90;99.90;;;;;;5010973;28;20133;-71
2022/10/18 02:42:07;;;;;;;15.32;10.73;;;17.90;99.90;;;;;;4993016;28;20160;-72
2022/10/18 02:44:34;;;;;;;15.70;9.27;;;17.90;99.90;;;;;;5010844;28;20469;-70
2022/10/18 02:47:02;;;;;;;;;;;17.80;99.90;;;;;;5010606;28;20125;-72
2022/10/18 02:49:29;;;;;;;20.55;11.05;;;17.70;99.90;;;;;;5010074;28;20361;-71
2022/10/18 02:51:57;;;;;;;16.08;11.63;;;17.70;99.90;;;;;;4992168;28;20066;-72
2022/10/18 02:54:26;;;;;;;20.70;11.70;;;17.70;99.90;;;;;;4992524;28;20343;-70
2022/10/18 02:56:52;;;;;;;17.98;11.68;;;17.70;99.90;;;;;;5011415;28;20466;-71
2022/10/18 02:59:20;;;;;;;16.90;10.57;;;17.70;99.90;;;;;;5011145;28;20049;-69
2022/10/18 03:01:46;;;;;;;17.45;11.23;;;17.70;99.90;;;;;;4994270;28;20443;-71
2022/10/18 03:04:12;;;;;;;18.75;12.43;;;17.80;99.90;;;;;;5011322;28;20026;-71
2022/10/18 03:06:40;;;;;;;19.00;11.50;;;17.70;99.90;;;;;;5011090;28;20115;-70
2022/10/18 03:09:08;;;;;;;18.35;12.50;;;17.70;99.90;;;;;;5011655;28;20025;-71
2022/10/18 03:11:34;;;;;;;19.15;12.77;;;17.60;99.90;;;;;;5011287;28;20030;-71
2022/10/18 03:14:00;;;;;;;18.38;11.25;;;17.60;99.90;;;;;;4993402;28;20033;-71
2022/10/18 03:16:27;;;;;;;20.42;13.40;;;17.70;99.90;;;;;;5011479;28;20084;-71
2022/10/18 03:18:53;;;;;;;19.83;13.15;;;17.70;99.90;;;;;;4993232;28;20320;-71
2022/10/18 03:21:19;;;;;;;17.23;12.65;;;17.70;99.90;;;;;;4993497;28;20034;-72
2022/10/18 03:23:45;;;;;;;17.15;12.30;;;17.70;99.90;;;;;;5011370;28;20072;-72
2022/10/18 03:26:11;;;;;;;18.00;12.63;;;17.60;99.90;;;;;;5012703;28;20087;-70
2022/10/18 03:28:37;;;;;;;21.13;12.77;;;17.60;99.90;;;;;;5024112;28;20033;-69
2022/10/18 03:31:04;;;;;;;19.02;12.95;;;17.60;99.90;;;;;;5012329;28;20084;-68
2022/10/18 03:33:31;;;;;;;18.92;13.20;;;17.60;99.90;;;;;;5012019;28;20034;-71
2022/10/18 03:35:57;;;;;;;21.20;12.65;;;17.60;99.90;;;;;;5011986;28;20483;-69
2022/10/18 03:38:24;;;;;;;18.73;13.32;;;17.50;99.90;;;;;;5012198;28;20084;-68
2022/10/18 03:40:50;;;;;;;18.70;11.82;;;17.50;99.90;;;;;;4994090;28;20037;-70
2022/10/18 03:43:16;;;;;;;16.75;12.43;;;17.50;99.90;;;;;;5019230;28;20052;-71
2022/10/18 03:45:50;;;;;;;19.48;12.60;;;17.50;99.90;;;;;;5022288;28;20030;-67
2022/10/18 03:48:20;;;;;;;16.77;11.82;;;17.50;99.90;;;;;;5004492;28;20049;-71
2022/10/18 03:50:48;;;;;;;20.27;12.55;;;17.50;99.90;;;;;;5030938;28;20026;-71
2022/10/18 03:53:14;;;;;;;18.20;12.02;;;17.50;99.90;;;;;;5013421;28;20462;-70
2022/10/18 03:55:41;;;;;;;17.50;11.85;;;17.50;99.90;;;;;;5031720;28;20096;-71
2022/10/18 03:58:06;;;;;;;;;;;17.50;99.90;;;;;;5031542;28;20351;-71
2022/10/18 04:00:34;;;;;;;;;;;17.50;99.90;;;;;;5032439;28;19909;-69
2022/10/18 04:03:01;;;;;;;16.80;11.77;;;17.40;99.90;;;;;;5013337;28;19905;-71
2022/10/18 04:05:29;;;;;;;17.50;12.07;;;17.40;99.90;;;;;;5013137;28;20046;-72
2022/10/18 04:07:56;;;;;;;16.88;12.00;;;17.40;99.90;;;;;;5031096;28;20060;-71
2022/10/18 04:10:22;;;;;;;20.13;12.18;;;17.40;99.90;;;;;;5031760;28;20021;-69
2022/10/18 04:12:49;;;;;;;17.23;11.73;;;17.40;99.90;;;;;;5034964;28;20052;-71
2022/10/18 04:15:16;;;;;;;17.00;11.65;;;17.40;99.90;;;;;;5034650;28;20304;-71
2022/10/18 04:17:42;;;;;;;16.33;10.77;;;17.40;99.90;;;;;;5035157;28;20470;-70
2022/10/18 04:20:10;;;;;;;16.50;11.27;;;17.40;99.90;;;;;;5035819;28;20063;-71
2022/10/18 04:22:36;;;;;;;17.63;10.70;;;17.40;99.90;;;;;;5035333;28;20268;-72
2022/10/18 04:25:03;;;;;;;20.50;11.65;;;17.40;99.90;;;;;;5035410;28;20017;-71
2022/10/18 04:27:29;;;;;;;14.48;10.38;;;17.40;99.90;;;;;;5035555;28;20116;-75
2022/10/18 04:29:55;;;;;;;18.65;11.20;;;17.40;99.90;;;;;;5035108;28;20026;-70
2022/10/18 04:32:21;;;;;;;18.13;10.57;;;17.30;99.90;;;;;;5035432;28;20026;-74
2022/10/18 04:34:48;;;;;;;14.32;9.50;;;17.30;99.90;;;;;;5034342;28;20756;-74
2022/10/18 04:37:14;;;;;;;16.70;11.10;;;17.40;99.90;;;;;;5035526;28;20033;-74
2022/10/18 04:39:45;;;;;;;17.60;11.52;;;17.40;99.90;;;;;;5034889;28;20740;-73
2022/10/18 04:42:12;;;;;;;18.23;12.75;;;17.40;99.90;;;;;;5035110;28;20021;-75
2022/10/18 04:44:39;;;;;;;16.10;10.75;;;17.40;99.90;;;;;;5034498;28;20132;-75
2022/10/18 04:47:08;;;;;;;19.13;13.32;;;17.40;99.90;;;;;;5016567;28;20044;-75
2022/10/18 04:49:34;;;;;;;21.38;13.60;;;17.40;99.90;;;;;;5016906;28;20524;-76
2022/10/18 04:52:01;;;;;;;19.13;13.32;;;17.40;99.90;;;;;;5034662;28;20021;-76
2022/10/18 04:54:27;;;;;;;19.48;13.02;;;17.40;99.90;;;;;;5034913;28;20060;-74
2022/10/18 04:56:54;;;;;;;20.67;13.40;;;17.40;99.90;;;;;;5035202;28;20022;-74
2022/10/18 04:59:23;;;;;;;19.45;12.82;;;17.40;99.90;;;;;;5034820;28;20069;-74
2022/10/18 05:01:49;;;;;;;21.25;12.52;;;17.40;99.90;;;;;;5034494;28;20029;-76
2022/10/18 05:04:16;;;;;;;19.37;12.97;;;17.40;99.90;;;;;;5034707;28;20036;-76
2022/10/18 05:06:42;;;;;;;;;;;17.40;99.90;;;;;;5034783;28;20341;-76
2022/10/18 05:09:08;;;;;;;21.00;12.18;;;17.40;99.90;;;;;;5034972;28;20011;-76
2022/10/18 05:11:34;;;;;;;20.75;12.80;;;17.40;99.90;;;;;;5034355;28;20115;-77
2022/10/18 05:14:01;;;;;;;20.63;12.88;;;17.40;99.90;;;;;;5034421;28;20053;-77
2022/10/18 05:16:30;;;;;;;17.15;11.50;;;17.40;99.90;;;;;;5034311;28;20431;-77
2022/10/18 05:18:58;;;;;;;21.58;12.10;;;17.50;99.90;;;;;;5034695;28;20038;-77
2022/10/18 05:21:25;;;;;;;24.15;12.15;;;17.60;99.90;;;;;;5034734;28;20033;-76
2022/10/18 05:23:55;;;;;;;15.52;11.73;;;17.50;99.90;;;;;;5016245;28;20044;-77
2022/10/18 05:26:23;;;;;;;18.35;12.07;;;17.50;99.90;;;;;;5034549;28;20115;-75
2022/10/18 05:28:50;;;;;;;19.30;11.88;;;17.50;99.90;;;;;;5033343;28;20033;-77
2022/10/18 05:31:16;;;;;;;15.95;12.00;;;17.40;99.90;;;;;;5033429;28;20469;-76
2022/10/18 05:33:42;;;;;;;18.13;11.82;;;17.40;99.90;;;;;;5015158;28;20051;-77
2022/10/18 05:36:09;;;;;;;19.08;11.80;;;17.40;99.90;;;;;;5015701;28;20025;-77
2022/10/18 05:38:38;;;;;;;18.15;11.05;;;17.50;99.90;;;;;;5015611;28;20033;-77
2022/10/18 05:41:06;;;;;;;16.50;11.25;;;17.50;99.90;;;;;;5033024;28;20019;-76
2022/10/18 05:43:32;;;;;;;17.45;11.05;;;17.60;99.90;;;;;;5015370;28;20057;-78
2022/10/18 05:45:58;;;;;;;17.40;11.13;;;17.60;99.90;;;;;;5015574;28;20148;-78
2022/10/18 05:48:24;;;;;;;16.27;10.48;;;17.90;99.90;;;;;;5017387;28;20049;-77
2022/10/18 05:50:50;;;;;;;15.57;10.27;;;18.40;99.90;;;;;;4994925;28;20088;-77
2022/10/18 05:53:16;;;;;;;18.15;10.90;;;18.90;99.90;;;;;;4994397;28;20044;-77
2022/10/18 05:55:42;;;;;;;14.18;10.45;;;19.40;99.90;;;;;;4994446;28;20022;-77
2022/10/18 05:58:09;;;;;;;15.27;9.88;;;19.80;99.90;;;;;;5012273;28;20034;-77
2022/10/18 06:00:35;;;;;;;15.30;9.43;;;20.20;99.90;;;;;;5012719;28;20470;-78
2022/10/18 06:03:02;;;;;;;14.43;9.13;;;20.50;99.90;;;;;;5012586;28;20076;-76
2022/10/18 06:05:28;;;;;;;15.18;10.52;;;20.50;99.90;;;;;;5011771;28;20046;-77
2022/10/18 06:07:56;;;;;;;17.73;10.30;;;20.40;99.90;;;;;;4994356;28;20085;-78
2022/10/18 06:10:22;;;;;;;15.52;9.30;;;20.80;99.90;;;;;;5012655;28;20030;-78
2022/10/18 06:12:48;;;;;;;14.38;8.63;;;21.10;99.90;;;;;;5012588;28;20077;-77
2022/10/18 06:15:15;;;;;;;16.90;9.82;;;21.40;99.90;;;;;;5012065;28;20025;-77
2022/10/18 06:17:42;;;;;;;13.88;8.93;;;21.80;99.90;;;;;;5012284;28;20026;-77
2022/10/18 06:20:09;;;;;;;15.20;9.40;;;22.00;99.90;;;;;;4994954;28;20033;-77
2022/10/18 06:22:36;;;;;;;14.30;9.50;;;22.10;99.90;;;;;;5012799;28;20543;-76
2022/10/18 06:25:03;;;;;;;17.65;9.68;;;22.30;99.90;;;;;;5012684;28;20068;-77
2022/10/18 06:27:30;;;;;;;14.55;9.27;;;22.20;99.90;;;;;;5012450;28;20056;-75
2022/10/18 06:29:56;;;;;;;;;;;22.30;99.90;;;;;;5013187;28;20128;-76
2022/10/18 06:32:22;;;;;;;12.77;8.98;;;22.70;99.90;;;;;;5012390;28;19905;-77
2022/10/18 06:34:48;;;;;;;14.35;9.35;;;22.80;99.90;;;;;;5012658;28;20047;-76
2022/10/18 06:37:14;;;;;;;12.90;8.32;;;22.80;99.90;;;;;;5012373;28;20516;-76
2022/10/18 06:39:40;;;;;;;16.52;8.70;;;23.10;99.90;;;;;;5012363;28;20026;-77
2022/10/18 06:42:06;;;;;;;12.35;8.55;;;23.50;99.90;;;;;;5012645;28;20034;-77
2022/10/18 06:44:33;;;;;;;11.85;8.02;;;23.80;99.90;;;;;;5012079;28;20109;-77
2022/10/18 06:46:59;;;;;;;13.10;8.10;;;24.10;99.90;;;;;;5012129;28;20398;-76
2022/10/18 06:49:25;;;;;;;12.57;7.60;;;24.20;99.90;;;;;;5012061;28;20049;-76
2022/10/18 06:51:53;;;;;;;12.38;7.78;;;24.50;99.90;;;;;;5012010;28;20428;-76
2022/10/18 06:54:19;;;;;;;13.73;7.80;;;24.70;99.90;;;;;;5012185;28;20045;-76
2022/10/18 06:56:46;;;;;;;13.02;8.10;;;24.90;99.90;;;;;;5012354;28;20022;-77
2022/10/18 06:59:12;;;;;;;11.90;7.20;;;25.00;99.90;;;;;;5012616;28;20025;-77
2022/10/18 07:01:38;;;;;;;;;;;25.20;99.90;;;;;;4979415;28;20033;-78
2022/10/18 07:04:05;;;;;;;12.48;8.05;;;25.50;99.90;;;;;;5012870;28;19912;-75
2022/10/18 07:06:31;;;;;;;12.30;7.50;;;25.90;99.90;;;;;;5011661;28;20122;-76
2022/10/18 07:08:57;;;;;;;11.05;6.82;;;26.10;99.90;;;;;;5012050;28;20033;-75
2022/10/18 07:11:25;;;;;;;11.98;8.02;;;25.80;99.90;;;;;;5012422;28;20040;-74
2022/10/18 07:13:53;;;;;;;12.05;7.35;;;25.80;99.90;;;;;;5012409;28;20030;-76
2022/10/18 07:16:20;;;;;;;11.85;8.25;;;26.50;99.90;;;;;;5012206;28;20033;-76
2022/10/18 07:18:48;;;;;;;;;;;26.70;99.90;;;;;;5012303;28;20048;-76
2022/10/18 07:21:16;;;;;;;12.82;7.85;;;26.20;99.90;;;;;;5012291;28;19979;-76
2022/10/18 07:23:45;;;;;;;11.07;7.95;;;25.60;99.90;;;;;;5012235;28;20075;-77
2022/10/18 07:26:17;;;;;;;13.07;8.07;;;25.10;99.90;;;;;;5012108;28;20386;-77
2022/10/18 07:28:46;;;;;;;14.65;9.13;;;24.60;99.90;;;;;;4994069;28;20072;-75
2022/10/18 07:31:12;;;;;;;16.20;8.80;;;24.40;99.90;;;;;;4994129;28;20030;-75
2022/10/18 07:33:39;;;;;;;14.82;9.05;;;24.50;99.90;;;;;;5012339;28;20506;-75
2022/10/18 07:36:07;;;;;;;12.85;8.05;;;24.70;99.90;;;;;;5012335;28;20485;-77
2022/10/18 07:38:34;;;;;;;12.90;7.90;;;24.80;99.90;;;;;;5012254;28;20443;-76
2022/10/18 07:41:02;;;;;;;9.98;6.65;;;25.00;99.90;;;;;;5012373;28;20068;-76
2022/10/18 07:43:28;;;;;;;10.65;6.65;;;25.20;99.90;;;;;;5011887;28;20076;-76
2022/10/18 07:45:55;;;;;;;;;;;25.20;99.90;;;;;;4996428;28;20347;-76
2022/10/18 07:48:22;;;;;;;11.85;6.78;;;25.20;99.90;;;;;;5015241;28;19913;-76
2022/10/18 07:50:48;;;;;;;11.23;6.75;;;25.30;99.90;;;;;;5014894;28;20348;-76
2022/10/18 07:53:17;;;;;;;11.10;6.50;;;25.30;99.90;;;;;;5014904;28;20097;-77
2022/10/18 07:55:43;;;;;;;9.10;5.65;;;25.40;99.90;;;;;;5014610;28;20028;-77
2022/10/18 07:58:10;;;;;;;8.98;5.90;;;25.50;99.90;;;;;;4997096;28;20124;-75
2022/10/18 08:00:38;;;;;;;8.23;6.15;;;25.40;99.90;;;;;;5015015;28;20433;-77
2022/10/18 08:03:04;;;;;;;9.85;6.20;;;25.30;99.90;;;;;;5014692;28;20033;-77
2022/10/18 08:05:30;;;;;;;9.02;5.38;;;25.50;99.90;;;;;;5014559;28;20514;-77
2022/10/18 08:07:56;;;;;;;9.15;5.68;;;25.60;99.90;;;;;;5014803;28;20080;-76
2022/10/18 08:10:23;;;;;;;9.48;5.28;;;25.60;99.90;;;;;;5014775;28;20026;-75
2022/10/18 08:12:50;;;;;;;7.10;5.30;;;25.70;99.90;;;;;;5014850;28;20055;-77
2022/10/18 08:15:17;;;;;;;9.07;5.38;;;26.00;99.90;;;;;;5015071;28;20114;-77
2022/10/18 08:17:43;;;;;;;8.02;5.32;;;25.40;99.90;;;;;;5015277;28;20510;-77
2022/10/18 08:20:10;;;;;;;7.78;5.03;;;25.00;99.90;;;;;;5015256;28;20026;-76
2022/10/18 08:22:37;;;;;;;9.75;5.63;;;24.50;99.90;;;;;;5015470;28;20054;-76
2022/10/18 08:25:04;;;;;;;11.90;7.63;;;24.60;99.90;;;;;;5014807;28;20048;-76
2022/10/18 08:27:30;;;;;;;13.73;7.20;;;24.80;99.90;;;;;;4997374;28;20038;-76
2022/10/18 08:30:00;;;;;;;11.65;6.07;;;25.10;99.90;;;;;;5014855;28;20018;-77
2022/10/18 08:32:27;;;;;;;12.10;8.52;;;25.30;99.90;;;;;;5015341;28;20044;-73
2022/10/18 08:34:54;;;;;;;9.93;5.82;;;25.60;99.90;;;;;;5015251;28;20022;-76
2022/10/18 08:37:20;;;;;;;9.93;5.97;;;25.60;99.90;;;;;;4997321;28;20034;-77
2022/10/18 08:39:47;;;;;;;10.60;5.53;;;25.50;99.90;;;;;;4997580;28;20176;-77
2022/10/18 08:42:42;;;;;;;10.45;5.85;;;25.60;99.90;;;;;;5014969;28;20061;-76
2022/10/18 08:45:11;;;;;;;9.30;5.38;;;25.60;99.90;;;;;;4989126;28;20111;-76
2022/10/18 08:47:41;;;;;;;10.05;5.70;;;25.50;99.90;;;;;;5014576;28;20038;-77
2022/10/18 08:50:20;;;;;;;8.05;5.35;;;25.40;99.90;;;;;;5014693;28;20021;-76
2022/10/18 08:52:57;;;;;;;9.68;6.00;;;25.20;99.90;;;;;;5013871;28;20061;-77
2022/10/18 08:55:40;;;;;;;12.73;5.53;;;24.80;99.90;;;;;;5024564;28;20034;-76
2022/10/18 08:58:22;;;;;;;9.35;5.78;;;24.60;99.90;;;;;;5034594;28;20025;-77
2022/10/18 09:01:07;;;;;;;7.45;5.07;;;24.70;99.90;;;;;;5013100;28;20045;-76
2022/10/18 09:04:02;;;;;;;10.05;5.70;;;24.20;99.90;;;;;;4996975;28;20045;-76
2022/10/18 09:07:09;;;;;;;8.15;5.38;;;24.10;99.90;;;;;;4997375;28;20145;-75
2022/10/18 09:09:44;;;;;;;8.80;5.55;;;23.50;99.90;;;;;;4975214;28;20041;-75
2022/10/18 09:12:45;;;;;;;8.55;5.63;;;23.60;99.90;;;;;;5014440;28;20052;-77
2022/10/18 09:15:20;;;;;;;10.65;6.18;;;23.60;99.90;;;;;;5014865;28;20153;-76
2022/10/18 09:18:01;;;;;;;8.68;5.80;;;23.50;99.90;;;;;;5014002;28;20478;-76
2022/10/18 09:20:36;;;;;;;9.63;5.93;;;23.60;99.90;;;;;;5002392;28;20025;-76
2022/10/18 09:23:19;;;;;;;7.93;5.25;;;23.90;99.90;;;;;;5015935;28;20048;-76
2022/10/18 09:25:47;;;;;;;7.93;5.38;;;24.20;99.90;;;;;;5015932;28;20041;-75
2022/10/18 09:28:42;;;;;;;8.35;5.05;;;24.30;99.90;;;;;;5033649;28;20053;-81
2022/10/18 09:31:20;;;;;;;8.98;5.03;;;24.30;99.90;;;;;;5034163;28;20108;-81
2022/10/18 09:34:13;;;;;;;11.73;5.38;;;24.30;99.90;;;;;;5033756;28;20029;-81
2022/10/18 09:36:42;;;;;;;9.63;4.88;;;24.40;99.90;;;;;;5033696;28;20052;-79
2022/10/18 09:39:18;;;;;;;9.68;6.53;;;24.50;99.90;;;;;;5033762;28;20022;-82
2022/10/18 09:42:01;;;;;;;12.00;6.95;;;24.80;99.90;;;;;;5033925;28;20029;-81
2022/10/18 09:44:43;;;;;;;10.25;6.75;;;24.90;99.90;;;;;;5034078;28;20171;-81
2022/10/18 09:47:23;;;;;;;10.10;6.80;;;25.10;99.90;;;;;;5015915;28;20029;-80
2022/10/18 09:50:02;;;;;;;9.50;6.30;;;25.40;99.90;;;;;;5033691;28;20025;-81
2022/10/18 09:52:38;;;;;;;10.00;6.03;;;25.60;99.90;;;;;;5033991;28;20045;-81
2022/10/18 09:55:17;;;;;;;;;;;25.60;99.90;;;;;;5034363;28;20075;-77
2022/10/18 09:57:48;;;;;;;13.98;8.55;;;25.80;99.90;;;;;;5033318;28;19905;-70
2022/10/18 10:00:30;;;;;;;10.13;6.50;;;25.90;99.90;;;;;;5015257;28;20115;-70
2022/10/18 10:02:57;;;;;;;11.48;6.40;;;25.80;99.90;;;;;;5015519;28;20036;-71
2022/10/18 10:05:24;;;;;;;10.95;6.55;;;25.90;99.90;;;;;;5033078;28;20045;-71
2022/10/18 10:07:58;;;;;;;12.75;6.10;;;25.80;99.90;;;;;;5032759;28;20060;-71
2022/10/18 10:10:27;;;;;;;9.68;6.40;;;25.70;99.90;;;;;;5033257;28;20025;-70
2022/10/18 10:13:06;;;;;;;15.30;6.90;;;25.50;99.90;;;;;;5015125;28;20029;-70
2022/10/18 10:15:35;;;;;;;13.55;6.40;;;25.60;99.90;;;;;;5032953;28;20481;-70
2022/10/18 10:18:02;;;;;;;10.93;6.68;;;25.80;99.90;;;;;;5014658;28;20079;-71
2022/10/18 10:20:51;;;;;;;12.05;7.45;;;25.80;99.90;;;;;;5032417;28;20029;-70
2022/10/18 10:23:57;;;;;;;8.95;6.18;;;25.80;99.90;;;;;;5032755;28;20025;-70
2022/10/18 10:26:37;;;;;;;9.45;6.30;;;26.00;99.90;;;;;;4933349;29;20028;-71
2022/10/18 10:29:23;;;;;;;12.40;7.18;;;26.00;99.90;;;;;;4934300;29;20141;-70
2022/10/18 10:32:02;;;;;;;13.90;6.93;;;25.80;99.90;;;;;;4933540;29;20152;-69
2022/10/18 10:34:29;;;;;;;10.27;6.68;;;26.00;99.90;;;;;;4933860;29;20047;-69
2022/10/18 10:36:56;;;;;;;9.65;6.65;;;25.70;99.90;;;;;;4933238;29;20040;-69
2022/10/18 10:39:23;;;;;;;11.15;6.25;;;25.50;99.90;;;;;;4933385;29;20032;-70
2022/10/18 10:41:50;;;;;;;11.73;6.47;;;25.50;99.90;;;;;;4934251;29;20048;-70
2022/10/18 10:44:20;;;;;;;9.25;6.28;;;25.50;99.90;;;;;;4933284;29;20039;-69
2022/10/18 10:46:50;;;;;;;11.52;6.43;;;25.60;99.90;;;;;;4917100;29;20067;-69
2022/10/18 10:49:27;;;;;;;11.88;6.13;;;25.70;99.90;;;;;;4933583;29;20036;-69
2022/10/18 10:52:01;;;;;;;11.95;6.75;;;25.90;99.90;;;;;;4917819;29;20028;-70
2022/10/18 10:54:34;;;;;;;12.52;6.47;;;25.90;99.90;;;;;;4933096;29;20047;-69
2022/10/18 10:57:16;;;;;;;9.75;6.03;;;25.80;99.90;;;;;;4902186;29;20467;-70
2022/10/18 10:59:49;;;;;;;9.82;6.25;;;25.90;99.90;;;;;;4956372;28;20057;-69
2022/10/18 11:02:20;;;;;;;10.60;6.25;;;26.00;99.90;;;;;;5031868;28;20389;-70
2022/10/18 11:04:48;;;;;;;12.38;6.18;;;26.00;99.90;;;;;;5031306;28;20102;-69
2022/10/18 11:07:27;;;;;;;12.68;6.50;;;26.10;99.90;;;;;;5032096;28;20034;-69
2022/10/18 11:10:00;;;;;;;10.00;6.13;;;26.10;99.90;;;;;;5031879;28;20032;-70
2022/10/18 11:13:01;;;;;;;12.05;6.53;;;26.00;99.90;;;;;;5031581;28;20076;-68
2022/10/18 11:16:00;;;;;;;9.18;5.70;;;26.00;99.90;;;;;;5030932;28;20034;-71
2022/10/18 11:18:32;;;;;;;8.38;5.65;;;26.20;99.90;;;;;;5031945;28;20470;-70
2022/10/18 11:21:07;;;;;;;8.93;5.85;;;26.30;99.90;;;;;;5035984;28;20018;-72
2022/10/18 11:23:36;;;;;;;9.57;5.60;;;26.10;99.90;;;;;;5036370;28;20092;-70
2022/10/18 11:26:28;;;;;;;12.63;5.85;;;26.00;99.90;;;;;;5035691;28;20025;-71
2022/10/18 11:29:15;;;;;;;8.68;6.03;;;26.10;99.90;;;;;;5035921;28;20029;-68
2022/10/18 11:32:03;;;;;;;11.23;6.00;;;26.10;99.90;;;;;;5036232;28;20021;-70
2022/10/18 11:34:54;;;;;;;10.77;5.88;;;26.00;99.90;;;;;;5036277;28;20485;-70
2022/10/18 11:37:22;;;;;;;9.98;5.50;;;26.10;99.90;;;;;;5035960;28;20025;-70
2022/10/18 11:40:14;;;;;;;9.35;5.75;;;26.40;99.90;;;;;;5035604;28;20385;-71
2022/10/18 11:42:49;;;;;;;8.65;5.55;;;26.40;99.90;;;;;;5017929;28;20389;-71
2022/10/18 11:45:46;;;;;;;9.18;5.35;;;26.50;99.90;;;;;;5035666;28;20025;-69
2022/10/18 11:48:34;;;;;;;11.13;5.30;;;26.50;99.90;;;;;;5035783;28;20033;-71
2022/10/18 11:51:25;;;;;;;11.35;5.78;;;26.50;99.90;;;;;;5035566;28;20028;-71
2022/10/18 11:54:07;;;;;;;11.52;5.68;;;26.40;99.90;;;;;;5034867;28;20524;-70
2022/10/18 11:56:53;;;;;;;10.13;5.20;;;26.50;99.90;;;;;;5035594;28;20171;-70
2022/10/18 12:00:04;;;;;;;9.32;5.55;;;26.50;99.90;;;;;;5035331;28;20108;-71
2022/10/18 12:02:53;;;;;;;9.57;5.60;;;26.50;99.90;;;;;;5034468;28;20049;-72
2022/10/18 12:05:20;;;;;;;10.35;5.80;;;26.30;99.90;;;;;;5034497;28;20037;-71
2022/10/18 12:08:09;;;;;;;8.77;5.47;;;26.20;99.90;;;;;;5035484;28;20029;-72
2022/10/18 12:10:39;;;;;;;9.93;5.38;;;26.10;99.90;;;;;;5017546;28;20036;-72
2022/10/18 12:13:11;;;;;;;9.20;5.32;;;26.20;99.90;;;;;;5036010;28;20022;-71
2022/10/18 12:15:39;;;;;;;10.38;5.35;;;26.00;99.90;;;;;;5035682;28;20064;-73
2022/10/18 12:18:13;;;;;;;12.52;5.65;;;26.20;99.90;;;;;;5035585;28;20034;-72
2022/10/18 12:20:45;;;;;;;7.47;5.07;;;26.30;99.90;;;;;;5036318;28;20021;-72
2022/10/18 12:23:50;;;;;;;11.75;5.53;;;26.40;99.90;;;;;;5017495;28;20129;-72
2022/10/18 12:26:16;;;;;;;8.95;5.03;;;26.50;99.90;;;;;;5036313;28;20034;-72
2022/10/18 12:29:06;;;;;;;7.95;5.28;;;26.60;99.90;;;;;;5035688;28;20116;-72
2022/10/18 12:31:47;;;;;;;9.13;4.93;;;26.50;99.90;;;;;;5034644;28;20033;-71
2022/10/18 12:34:22;;;;;;;9.63;5.10;;;26.50;99.90;;;;;;5035596;28;20048;-72
2022/10/18 12:36:54;;;;;;;12.17;5.27;;;26.30;99.90;;;;;;5035456;28;20073;-73
2022/10/18 12:39:30;;;;;;;10.57;5.28;;;26.40;99.90;;;;;;5035590;28;20113;-73
2022/10/18 12:41:58;;;;;;;7.35;4.90;;;26.40;99.90;;;;;;5035603;28;20323;-73
2022/10/18 12:44:31;;;;;;;11.30;5.05;;;26.40;99.90;;;;;;5035807;28;20032;-72
2022/10/18 12:47:02;;;;;;;8.55;4.88;;;26.30;99.90;;;;;;5035554;28;20026;-71
2022/10/18 12:49:36;;;;;;;10.38;4.55;;;26.40;99.90;;;;;;5017296;28;20025;-72
2022/10/18 12:52:27;;;;;;;8.15;4.57;;;26.40;99.90;;;;;;5035125;28;20029;-71
2022/10/18 12:55:12;;;;;;;6.97;4.35;;;26.40;99.90;;;;;;5034669;28;20466;-73
2022/10/18 12:58:04;;;;;;;10.35;4.85;;;26.40;99.90;;;;;;5034872;28;20075;-72
2022/10/18 13:00:30;;;;;;;7.20;4.60;;;26.20;99.90;;;;;;4990458;28;20037;-73
2022/10/18 13:03:09;;;;;;;12.73;5.32;;;26.10;99.90;;;;;;5017004;28;20064;-72
2022/10/18 13:05:56;;;;;;;9.32;4.60;;;26.20;99.90;;;;;;5034363;28;20430;-73